BA0077 weather

Fazenda Palmares 2 Airport
Barreiras, Bahia, Brazil

Public forecast

Using degrees Celsius for public forecast. Weather courtesy of forecast.io.

Closest aviation weather report (METAR) to Fazenda Palmares 2 Airport

Closest report is Porto Nacional Airport, 149.3 nm (276.4 km) WNW. Retrieved UTC (0 seconds ago):

Closest aviation forecast (TAF) to Fazenda Palmares 2 Airport

Forecast is more than 6 hours old.

Closest forecast is Brigadeiro Lysias Rodrigues Airport, 158.6 nm (293.8 km) WNW. Retrieved 2020/07/02 06:00 UTC (6 hours ago):

TAF SBPJ 020300Z 0206/0306 18005KT CAVOK TN22/0208Z TX33/0217Z BECMG 0214/0216 11007KT 9999 FEW030 BECMG 0221/0223 CAVOK RMK PCX